Time;durP1;ratioP1;P1;durP2;ratioP2;P2;SDS_P1;SDS_P2;PMS_P1;PMS_P2;Temp;Humidity;BMP_temperature;BMP_pressure;BME280_temperature;BME280_humidity;BME280_pressure;Samples;Min_cycle;Max_cycle;Signal;HPM_P1;HPM_P2
2023/04/22 00:01:27;;;;;;;6.25;5.15;;;9.50;99.90;;;;;;6121879;23;20450;-83
2023/04/22 00:03:54;;;;;;;5.15;4.65;;;9.50;99.90;;;;;;6121498;23;20476;-83
2023/04/22 00:06:22;;;;;;;6.30;5.70;;;9.50;99.90;;;;;;6121707;23;20473;-83
2023/04/22 00:08:49;;;;;;;6.13;5.53;;;9.50;99.90;;;;;;6121959;23;20411;-83
2023/04/22 00:11:15;;;;;;;5.50;4.95;;;9.50;99.90;;;;;;6121838;23;20430;-82
2023/04/22 00:13:43;;;;;;;7.38;6.03;;;9.40;99.90;;;;;;6121091;23;20409;-82
2023/04/22 00:16:10;;;;;;;6.45;5.85;;;9.30;99.90;;;;;;6122347;23;20394;-82
2023/04/22 00:18:37;;;;;;;6.88;6.18;;;9.30;99.90;;;;;;6121112;23;20396;-82
2023/04/22 00:21:05;;;;;;;7.07;6.05;;;9.20;99.90;;;;;;6123569;23;20430;-83
2023/04/22 00:23:32;;;;;;;7.63;6.80;;;9.20;99.90;;;;;;6120633;23;20423;-82
2023/04/22 00:25:59;;;;;;;6.68;6.07;;;9.20;99.90;;;;;;6122060;23;20446;-83
2023/04/22 00:28:27;;;;;;;6.85;6.20;;;9.20;99.90;;;;;;6121772;23;20438;-83
2023/04/22 00:30:53;;;;;;;6.18;5.38;;;9.30;99.90;;;;;;6121291;23;20439;-83
2023/04/22 00:33:20;;;;;;;5.85;5.25;;;9.30;99.90;;;;;;6122056;23;20490;-83
2023/04/22 00:35:47;;;;;;;6.22;5.22;;;9.20;99.90;;;;;;6122542;23;20466;-82
2023/04/22 00:38:14;;;;;;;5.78;5.20;;;9.30;99.90;;;;;;6121301;23;20440;-82
2023/04/22 00:40:41;;;;;;;6.75;6.00;;;9.20;99.90;;;;;;6120868;23;20375;-82
2023/04/22 00:43:08;;;;;;;5.80;5.25;;;9.20;99.90;;;;;;6121998;23;20406;-82
2023/04/22 00:45:36;;;;;;;5.40;4.90;;;9.20;99.90;;;;;;6120798;23;20472;-82
2023/04/22 00:48:03;;;;;;;5.30;4.80;;;9.20;99.90;;;;;;6121821;23;20391;-82
2023/04/22 00:50:29;;;;;;;5.38;4.88;;;9.20;99.90;;;;;;6121606;23;20376;-82
2023/04/22 00:52:56;;;;;;;5.95;5.38;;;9.20;99.90;;;;;;6121153;23;20372;-82
2023/04/22 00:55:24;;;;;;;6.03;5.43;;;9.20;99.90;;;;;;6122761;23;20381;-82
2023/04/22 00:57:52;;;;;;;4.97;4.50;;;9.10;99.90;;;;;;6120819;23;20380;-82
2023/04/22 01:00:25;;;;;;;4.65;4.20;;;9.10;99.90;;;;;;6121868;23;20762;-78
2023/04/22 19:10:58;;;;;;;3.90;3.08;;;16.40;83.40;;;;;;6141741;23;20849;-79
2023/04/22 19:13:25;;;;;;;7.47;3.27;;;16.40;84.30;;;;;;6150367;23;20744;-79
2023/04/22 19:15:56;;;;;;;7.28;4.95;;;16.30;83.60;;;;;;6153108;23;20383;-79
2023/04/22 19:18:23;;;;;;;16.13;4.88;;;16.30;85.00;;;;;;6151270;23;20381;-78
2023/04/22 19:20:50;;;;;;;6.43;3.55;;;16.30;85.00;;;;;;6150376;23;20378;-79
2023/04/22 19:23:17;;;;;;;5.00;3.38;;;16.30;85.20;;;;;;6151270;23;20370;-78
2023/04/22 19:25:44;;;;;;;4.68;3.17;;;16.20;85.80;;;;;;6150431;23;20461;-80
2023/04/22 19:28:11;;;;;;;4.32;2.70;;;16.20;86.80;;;;;;6152664;23;20400;-78
2023/04/22 19:30:39;;;;;;;3.15;2.55;;;16.10;87.00;;;;;;6150178;23;20405;-78
2023/04/22 19:33:06;;;;;;;12.55;2.80;;;16.10;87.00;;;;;;6126465;23;20394;-79
2023/04/22 19:35:33;;;;;;;16.53;2.70;;;16.10;85.90;;;;;;6125702;23;20444;-79
2023/04/22 19:38:00;;;;;;;12.70;4.60;;;16.00;86.00;;;;;;6150969;23;20521;-79
2023/04/22 19:40:27;;;;;;;7.45;4.00;;;16.00;91.80;;;;;;6149844;23;20760;-80
2023/04/22 19:42:54;;;;;;;3.42;3.13;;;16.00;91.80;;;;;;6153004;23;20378;-79
2023/04/22 19:45:21;;;;;;;3.00;2.75;;;15.90;91.60;;;;;;6150462;23;20421;-79
2023/04/22 19:47:48;;;;;;;5.53;3.58;;;15.90;91.90;;;;;;6150806;23;20382;-79
2023/04/22 19:50:15;;;;;;;4.93;3.47;;;15.90;92.10;;;;;;6152149;23;20716;-79
2023/04/22 19:52:45;;;;;;;3.45;3.13;;;15.90;92.60;;;;;;6126362;23;20701;-79
2023/04/22 19:55:12;;;;;;;3.88;3.00;;;15.90;93.60;;;;;;6150699;23;20376;-79
2023/04/22 19:57:41;;;;;;;3.45;3.17;;;15.80;92.90;;;;;;6149757;23;20449;-79
2023/04/22 20:00:13;;;;;;;3.47;2.85;;;15.80;92.80;;;;;;6151146;23;20370;-79
2023/04/22 20:02:40;;;;;;;2.83;2.42;;;15.80;92.80;;;;;;6149692;23;20465;-78
2023/04/22 20:05:08;;;;;;;2.80;2.60;;;15.80;92.80;;;;;;6125317;23;20435;-78
2023/04/22 20:07:36;;;;;;;3.20;2.67;;;15.80;92.90;;;;;;6120385;23;20774;-78
2023/04/22 20:10:07;;;;;;;4.43;4.03;;;15.80;93.00;;;;;;6120800;23;20384;-78
2023/04/22 20:12:34;;;;;;;3.47;3.17;;;15.80;97.50;;;;;;6119667;23;20383;-78
2023/04/22 20:15:04;;;;;;;2.60;2.40;;;15.80;95.30;;;;;;6120616;23;20376;-78
2023/04/22 20:17:34;;;;;;;3.42;3.10;;;15.70;94.60;;;;;;6095813;23;20403;-79
2023/04/22 20:20:06;;;;;;;2.72;2.53;;;15.70;94.90;;;;;;6121986;23;20375;-79
2023/04/22 20:22:34;;;;;;;3.20;3.00;;;15.70;95.50;;;;;;6120711;23;20451;-78
2023/04/22 20:25:04;;;;;;;2.92;2.72;;;15.70;97.10;;;;;;6120965;23;20429;-81
2023/04/22 20:27:32;;;;;;;3.93;3.63;;;15.60;96.20;;;;;;6121923;23;20454;-79
2023/04/22 20:30:02;;;;;;;3.45;3.15;;;15.60;99.40;;;;;;6121196;23;20411;-78
2023/04/22 20:32:30;;;;;;;4.00;3.63;;;15.60;97.60;;;;;;6122345;23;20466;-79
2023/04/22 20:34:57;;;;;;;3.80;3.50;;;15.50;98.90;;;;;;6120620;23;20383;-79
2023/04/22 20:37:25;;;;;;;3.23;3.03;;;15.50;99.90;;;;;;6121611;23;20415;-79
2023/04/22 20:39:53;;;;;;;2.75;2.55;;;15.50;98.40;;;;;;6120300;23;28711;-78
2023/04/22 20:42:24;;;;;;;2.63;2.40;;;15.50;98.00;;;;;;6120752;23;20885;-79
2023/04/22 20:44:51;;;;;;;2.38;2.25;;;15.50;98.50;;;;;;6120112;23;20399;-79
2023/04/22 20:47:18;;;;;;;2.58;2.38;;;15.40;97.80;;;;;;6121203;23;20725;-79
2023/04/22 20:49:45;;;;;;;2.67;2.47;;;15.50;98.10;;;;;;6120132;23;20383;-80
2023/04/22 20:52:12;;;;;;;2.80;2.60;;;15.40;98.20;;;;;;6119844;23;20372;-79
2023/04/22 20:54:39;;;;;;;2.80;2.60;;;15.50;97.70;;;;;;6121284;23;20372;-80
2023/04/22 20:57:07;;;;;;;3.00;2.80;;;15.50;97.60;;;;;;6121502;23;20832;-79
2023/04/22 20:59:34;;;;;;;3.35;3.05;;;15.40;97.70;;;;;;6120662;23;20375;-79
2023/04/22 21:02:05;;;;;;;2.85;2.65;;;15.40;98.50;;;;;;6106445;23;20367;-79
2023/04/22 21:04:33;;;;;;;4.00;3.70;;;15.40;97.90;;;;;;6120908;23;20710;-79
2023/04/22 21:07:05;;;;;;;4.90;4.50;;;15.40;97.90;;;;;;6120105;23;20376;-79
2023/04/22 21:09:32;;;;;;;5.53;4.30;;;15.40;98.00;;;;;;6120617;23;20386;-79
2023/04/22 21:11:59;;;;;;;5.82;5.10;;;15.40;98.00;;;;;;6119453;23;20404;-81
2023/04/22 21:14:26;;;;;;;5.97;5.38;;;15.40;97.80;;;;;;6118420;23;20869;-79
2023/04/22 21:17:05;;;;;;;5.32;4.63;;;15.40;97.80;;;;;;6120517;23;20383;-79
2023/04/22 21:19:33;;;;;;;5.85;4.60;;;15.40;97.70;;;;;;6121359;23;20849;-79
2023/04/22 21:22:06;;;;;;;5.30;4.75;;;15.30;97.50;;;;;;6119818;23;20375;-78
2023/04/22 21:24:34;;;;;;;6.50;5.80;;;15.30;97.30;;;;;;6121130;23;20415;-78
2023/04/22 21:27:02;;;;;;;6.63;5.97;;;15.30;97.10;;;;;;6120507;23;20442;-79
2023/04/22 21:29:29;;;;;;;6.05;5.45;;;15.30;96.80;;;;;;6122322;23;20485;-79
2023/04/22 21:31:56;;;;;;;5.57;4.97;;;15.30;97.50;;;;;;6119819;23;20459;-79
2023/04/22 21:34:34;;;;;;;5.10;4.60;;;15.20;97.40;;;;;;6120719;23;20392;-81
2023/04/22 21:37:01;;;;;;;4.00;3.70;;;15.20;97.20;;;;;;6119916;23;20470;-79
2023/04/22 21:39:28;;;;;;;4.18;3.83;;;15.20;98.80;;;;;;6119993;23;20460;-79
2023/04/22 21:41:57;;;;;;;4.75;4.35;;;15.10;99.50;;;;;;5996100;23;20383;-79
2023/04/22 21:44:25;;;;;;;3.77;3.47;;;15.10;99.90;;;;;;6090965;23;20744;-79
2023/04/22 21:46:52;;;;;;;3.47;3.17;;;15.00;99.90;;;;;;6090658;23;20378;-79
2023/04/22 21:49:21;;;;;;;3.10;2.80;;;15.00;99.90;;;;;;6091421;23;20787;-79
2023/04/22 21:51:48;;;;;;;3.78;3.38;;;15.00;99.90;;;;;;6090565;23;20409;-78
2023/04/22 21:54:16;;;;;;;4.05;3.67;;;14.90;99.90;;;;;;6092078;23;20696;-78
2023/04/22 21:56:43;;;;;;;3.10;2.90;;;14.90;99.90;;;;;;6091446;23;20409;-78
2023/04/22 21:59:10;;;;;;;2.85;2.65;;;14.90;99.90;;;;;;6094976;23;20377;-78
2023/04/22 22:01:37;;;;;;;2.80;2.60;;;14.90;99.90;;;;;;6092047;23;20425;-79
2023/04/22 22:04:04;;;;;;;2.83;2.63;;;14.80;99.90;;;;;;6091811;23;20456;-79
2023/04/22 22:06:32;;;;;;;3.13;2.75;;;14.80;99.90;;;;;;6092653;23;20384;-79
2023/04/22 22:08:58;;;;;;;3.03;2.83;;;14.80;99.90;;;;;;6092625;23;20384;-79
2023/04/22 22:11:25;;;;;;;2.90;2.70;;;14.70;99.90;;;;;;6092442;23;20381;-78
2023/04/22 22:13:57;;;;;;;2.55;2.35;;;14.70;99.90;;;;;;6092302;23;20748;-79
2023/04/22 22:16:24;;;;;;;2.47;2.28;;;14.70;99.90;;;;;;6093159;23;20395;-78
2023/04/22 22:18:51;;;;;;;2.40;2.20;;;14.60;99.90;;;;;;6093842;23;20373;-78
2023/04/22 22:21:18;;;;;;;2.38;2.28;;;14.60;99.90;;;;;;6092994;23;20385;-79
2023/04/22 22:23:45;;;;;;;2.80;2.60;;;14.60;99.90;;;;;;6086723;23;20446;-79
2023/04/22 22:26:12;;;;;;;2.70;2.50;;;14.60;99.90;;;;;;6092734;23;20377;-78
2023/04/22 22:28:39;;;;;;;2.40;2.20;;;14.60;99.90;;;;;;6093777;23;20685;-78
2023/04/22 22:31:06;;;;;;;2.63;2.42;;;14.50;99.90;;;;;;6091724;23;20374;-78
2023/04/22 22:33:33;;;;;;;2.72;2.53;;;14.50;99.90;;;;;;6092096;23;20382;-78
2023/04/22 22:36:01;;;;;;;3.33;3.03;;;14.50;99.90;;;;;;6091806;23;20389;-79
2023/04/22 22:38:27;;;;;;;2.75;2.55;;;14.50;99.90;;;;;;6092399;23;20380;-78
2023/04/22 22:40:54;;;;;;;2.72;2.28;;;14.50;99.90;;;;;;6092697;23;20673;-82
2023/04/22 22:43:21;;;;;;;2.67;2.47;;;14.40;99.90;;;;;;6092808;23;20381;-79
2023/04/22 22:45:48;;;;;;;2.15;2.03;;;14.40;99.90;;;;;;6092196;23;20378;-80
2023/04/22 22:48:15;;;;;;;2.72;2.53;;;14.40;99.90;;;;;;6092591;23;20384;-79
2023/04/22 22:50:42;;;;;;;2.78;2.45;;;14.40;99.90;;;;;;6092912;23;20444;-78
2023/04/22 22:53:09;;;;;;;2.60;2.40;;;14.40;99.90;;;;;;6091604;23;20440;-78
2023/04/22 22:55:36;;;;;;;2.70;2.50;;;14.30;99.90;;;;;;6093882;23;20381;-79
2023/04/22 22:58:03;;;;;;;3.00;2.80;;;14.30;99.90;;;;;;6088613;23;20407;-79
2023/04/22 23:00:29;;;;;;;3.10;2.90;;;14.30;99.90;;;;;;6093923;23;20385;-78
2023/04/22 23:02:56;;;;;;;3.47;3.17;;;14.30;99.90;;;;;;6088437;23;20386;-79
2023/04/22 23:05:23;;;;;;;3.40;3.10;;;14.30;99.90;;;;;;6092834;23;20449;-79
2023/04/22 23:07:50;;;;;;;3.60;2.88;;;14.30;99.90;;;;;;6086820;23;20379;-80
2023/04/22 23:10:17;;;;;;;3.10;2.88;;;14.30;99.90;;;;;;6092757;23;20458;-79
2023/04/22 23:12:44;;;;;;;2.72;2.53;;;14.30;99.90;;;;;;6093949;23;20381;-78
2023/04/22 23:15:11;;;;;;;2.35;2.20;;;14.30;99.90;;;;;;6091727;23;20452;-79
2023/04/22 23:17:37;;;;;;;2.97;2.78;;;14.30;99.90;;;;;;6092316;23;20720;-79
2023/04/22 23:20:08;;;;;;;2.63;2.42;;;14.30;99.90;;;;;;6091698;23;20385;-78
2023/04/22 23:22:38;;;;;;;2.80;2.60;;;14.30;99.90;;;;;;6091694;23;20385;-78
2023/04/22 23:25:07;;;;;;;3.00;2.80;;;14.20;99.90;;;;;;6091674;23;20386;-79
2023/04/22 23:27:34;;;;;;;3.28;2.97;;;14.20;99.90;;;;;;6092326;23;20385;-78
2023/04/22 23:30:03;;;;;;;3.10;2.80;;;14.20;99.90;;;;;;6091551;23;20843;-81
2023/04/22 23:32:31;;;;;;;3.40;2.55;;;14.20;99.90;;;;;;6092633;23;20456;-79
2023/04/22 23:35:00;;;;;;;2.95;2.75;;;14.20;99.90;;;;;;6091227;23;20378;-78
2023/04/22 23:37:28;;;;;;;2.75;2.55;;;14.20;99.90;;;;;;6092143;23;20382;-79
2023/04/22 23:39:55;;;;;;;2.90;2.53;;;14.10;99.90;;;;;;6092940;23;20465;-78
2023/04/22 23:42:22;;;;;;;2.88;2.67;;;14.10;99.90;;;;;;6092507;23;20404;-79
2023/04/22 23:44:48;;;;;;;3.03;2.83;;;14.10;99.90;;;;;;6025686;23;20387;-78
2023/04/22 23:47:16;;;;;;;3.33;3.00;;;14.10;99.90;;;;;;6091182;23;20484;-79
2023/04/22 23:49:43;;;;;;;3.20;2.90;;;14.10;99.90;;;;;;6092522;23;20711;-78
2023/04/22 23:52:11;;;;;;;3.42;3.13;;;14.00;99.90;;;;;;6091271;23;20403;-79
2023/04/22 23:54:39;;;;;;;4.07;3.67;;;14.00;99.90;;;;;;6092358;23;20405;-78
2023/04/22 23:57:07;;;;;;;3.88;3.47;;;14.00;99.90;;;;;;6091165;23;20393;-78
2023/04/22 23:59:34;;;;;;;3.85;3.50;;;14.00;99.90;;;;;;6091952;23;20389;-79
